sensor_id;sensor_type;location;lat;lon;timestamp;P1;durP1;ratioP1;P2;durP2;ratioP2
64712;SDS011;51140;45.340;5.980;2023-04-06T00:02:06;7.15;;;2.97;;
64712;SDS011;51140;45.340;5.980;2023-04-06T00:04:32;7.30;;;3.65;;
64712;SDS011;51140;45.340;5.980;2023-04-06T00:06:57;7.20;;;3.75;;
64712;SDS011;51140;45.340;5.980;2023-04-06T00:09:23;7.25;;;3.17;;
64712;SDS011;51140;45.340;5.980;2023-04-06T00:11:48;7.57;;;3.30;;
64712;SDS011;51140;45.340;5.980;2023-04-06T00:14:13;7.70;;;3.70;;
64712;SDS011;51140;45.340;5.980;2023-04-06T00:16:41;7.28;;;3.35;;
64712;SDS011;51140;45.340;5.980;2023-04-06T00:19:07;7.13;;;2.78;;
64712;SDS011;51140;45.340;5.980;2023-04-06T00:21:32;9.98;;;3.47;;
64712;SDS011;51140;45.340;5.980;2023-04-06T00:23:57;8.35;;;3.63;;
64712;SDS011;51140;45.340;5.980;2023-04-06T00:26:23;6.10;;;3.22;;
64712;SDS011;51140;45.340;5.980;2023-04-06T00:28:48;9.80;;;3.78;;
64712;SDS011;51140;45.340;5.980;2023-04-06T00:31:16;7.43;;;3.22;;
64712;SDS011;51140;45.340;5.980;2023-04-06T00:33:42;7.35;;;3.10;;
64712;SDS011;51140;45.340;5.980;2023-04-06T00:36:07;6.63;;;2.92;;
64712;SDS011;51140;45.340;5.980;2023-04-06T00:38:33;7.93;;;3.60;;
64712;SDS011;51140;45.340;5.980;2023-04-06T00:40:58;8.25;;;3.30;;
64712;SDS011;51140;45.340;5.980;2023-04-06T00:43:23;5.97;;;3.00;;
64712;SDS011;51140;45.340;5.980;2023-04-06T00:45:49;8.50;;;3.05;;
64712;SDS011;51140;45.340;5.980;2023-04-06T00:48:15;7.47;;;3.40;;
64712;SDS011;51140;45.340;5.980;2023-04-06T00:50:41;7.15;;;3.20;;
64712;SDS011;51140;45.340;5.980;2023-04-06T00:53:07;7.07;;;3.13;;
64712;SDS011;51140;45.340;5.980;2023-04-06T00:55:32;8.65;;;3.60;;
64712;SDS011;51140;45.340;5.980;2023-04-06T00:57:59;8.23;;;3.30;;
64712;SDS011;51140;45.340;5.980;2023-04-06T01:00:26;8.02;;;3.10;;
64712;SDS011;51140;45.340;5.980;2023-04-06T01:02:51;7.82;;;3.22;;
64712;SDS011;51140;45.340;5.980;2023-04-06T01:05:17;8.70;;;3.85;;
64712;SDS011;51140;45.340;5.980;2023-04-06T01:07:43;8.00;;;3.42;;
64712;SDS011;51140;45.340;5.980;2023-04-06T01:10:08;8.45;;;3.58;;
64712;SDS011;51140;45.340;5.980;2023-04-06T01:12:34;7.05;;;2.90;;
64712;SDS011;51140;45.340;5.980;2023-04-06T01:15:01;9.00;;;3.70;;
64712;SDS011;51140;45.340;5.980;2023-04-06T01:17:26;7.30;;;3.13;;
64712;SDS011;51140;45.340;5.980;2023-04-06T01:19:53;7.72;;;3.35;;
64712;SDS011;51140;45.340;5.980;2023-04-06T01:22:19;7.88;;;3.20;;
64712;SDS011;51140;45.340;5.980;2023-04-06T01:24:45;6.63;;;3.25;;
64712;SDS011;51140;45.340;5.980;2023-04-06T01:27:11;8.05;;;3.40;;
64712;SDS011;51140;45.340;5.980;2023-04-06T01:29:37;8.38;;;3.33;;
64712;SDS011;51140;45.340;5.980;2023-04-06T01:32:02;7.80;;;3.33;;
64712;SDS011;51140;45.340;5.980;2023-04-06T01:34:28;5.90;;;2.92;;
64712;SDS011;51140;45.340;5.980;2023-04-06T01:36:53;7.68;;;3.15;;
64712;SDS011;51140;45.340;5.980;2023-04-06T01:39:19;7.50;;;2.83;;
64712;SDS011;51140;45.340;5.980;2023-04-06T01:41:45;7.55;;;3.53;;
64712;SDS011;51140;45.340;5.980;2023-04-06T01:44:12;8.45;;;3.75;;
64712;SDS011;51140;45.340;5.980;2023-04-06T01:46:38;7.95;;;3.55;;
64712;SDS011;51140;45.340;5.980;2023-04-06T01:49:03;8.35;;;3.10;;
64712;SDS011;51140;45.340;5.980;2023-04-06T01:51:28;6.47;;;3.03;;
64712;SDS011;51140;45.340;5.980;2023-04-06T01:53:55;6.57;;;2.83;;
64712;SDS011;51140;45.340;5.980;2023-04-06T01:56:20;6.57;;;3.20;;
64712;SDS011;51140;45.340;5.980;2023-04-06T01:58:46;7.47;;;3.38;;
64712;SDS011;51140;45.340;5.980;2023-04-06T02:01:11;5.53;;;2.92;;
64712;SDS011;51140;45.340;5.980;2023-04-06T02:03:36;7.45;;;3.35;;
64712;SDS011;51140;45.340;5.980;2023-04-06T02:06:02;7.50;;;3.35;;
64712;SDS011;51140;45.340;5.980;2023-04-06T02:08:28;6.68;;;3.22;;
64712;SDS011;51140;45.340;5.980;2023-04-06T02:10:54;9.02;;;4.00;;
64712;SDS011;51140;45.340;5.980;2023-04-06T02:13:19;6.95;;;3.38;;
64712;SDS011;51140;45.340;5.980;2023-04-06T02:15:45;8.38;;;3.33;;
64712;SDS011;51140;45.340;5.980;2023-04-06T02:18:10;7.00;;;3.08;;
64712;SDS011;51140;45.340;5.980;2023-04-06T02:20:35;7.38;;;3.05;;
64712;SDS011;51140;45.340;5.980;2023-04-06T02:23:01;11.02;;;3.90;;
64712;SDS011;51140;45.340;5.980;2023-04-06T02:25:26;7.85;;;3.20;;
64712;SDS011;51140;45.340;5.980;2023-04-06T02:27:52;8.52;;;2.95;;
64712;SDS011;51140;45.340;5.980;2023-04-06T02:30:17;8.10;;;3.28;;
64712;SDS011;51140;45.340;5.980;2023-04-06T02:32:42;7.40;;;3.80;;
64712;SDS011;51140;45.340;5.980;2023-04-06T02:35:08;7.28;;;3.40;;
64712;SDS011;51140;45.340;5.980;2023-04-06T02:37:33;6.97;;;3.17;;
64712;SDS011;51140;45.340;5.980;2023-04-06T02:39:59;6.43;;;3.28;;
64712;SDS011;51140;45.340;5.980;2023-04-06T02:42:24;6.97;;;3.50;;
64712;SDS011;51140;45.340;5.980;2023-04-06T02:44:50;8.07;;;3.47;;
64712;SDS011;51140;45.340;5.980;2023-04-06T02:47:15;7.20;;;3.65;;
64712;SDS011;51140;45.340;5.980;2023-04-06T02:49:40;7.45;;;3.95;;
64712;SDS011;51140;45.340;5.980;2023-04-06T02:52:06;7.03;;;3.40;;
64712;SDS011;51140;45.340;5.980;2023-04-06T02:54:31;11.82;;;5.15;;
64712;SDS011;51140;45.340;5.980;2023-04-06T02:56:57;8.38;;;3.50;;
64712;SDS011;51140;45.340;5.980;2023-04-06T02:59:23;7.75;;;3.22;;
64712;SDS011;51140;45.340;5.980;2023-04-06T03:01:48;10.65;;;5.00;;
64712;SDS011;51140;45.340;5.980;2023-04-06T03:04:13;12.10;;;5.10;;
64712;SDS011;51140;45.340;5.980;2023-04-06T03:06:39;10.95;;;5.43;;
64712;SDS011;51140;45.340;5.980;2023-04-06T03:09:05;8.50;;;3.88;;
64712;SDS011;51140;45.340;5.980;2023-04-06T03:11:31;7.53;;;3.33;;
64712;SDS011;51140;45.340;5.980;2023-04-06T03:13:56;7.53;;;3.70;;
64712;SDS011;51140;45.340;5.980;2023-04-06T03:16:22;10.05;;;4.10;;
64712;SDS011;51140;45.340;5.980;2023-04-06T03:18:47;8.68;;;3.92;;
64712;SDS011;51140;45.340;5.980;2023-04-06T03:21:13;8.90;;;4.10;;
64712;SDS011;51140;45.340;5.980;2023-04-06T03:23:42;8.32;;;3.90;;
64712;SDS011;51140;45.340;5.980;2023-04-06T03:26:07;7.65;;;3.38;;
64712;SDS011;51140;45.340;5.980;2023-04-06T03:28:33;11.70;;;3.85;;
64712;SDS011;51140;45.340;5.980;2023-04-06T03:30:58;10.73;;;3.90;;
64712;SDS011;51140;45.340;5.980;2023-04-06T03:33:24;8.15;;;3.83;;
64712;SDS011;51140;45.340;5.980;2023-04-06T03:35:52;9.27;;;4.70;;
64712;SDS011;51140;45.340;5.980;2023-04-06T03:38:18;10.27;;;3.78;;
64712;SDS011;51140;45.340;5.980;2023-04-06T03:40:43;9.60;;;3.67;;
64712;SDS011;51140;45.340;5.980;2023-04-06T03:43:08;7.07;;;3.80;;
64712;SDS011;51140;45.340;5.980;2023-04-06T03:45:34;8.63;;;3.35;;
64712;SDS011;51140;45.340;5.980;2023-04-06T03:47:59;8.35;;;3.67;;
64712;SDS011;51140;45.340;5.980;2023-04-06T03:50:25;7.88;;;3.20;;
64712;SDS011;51140;45.340;5.980;2023-04-06T03:52:51;7.55;;;3.40;;
64712;SDS011;51140;45.340;5.980;2023-04-06T03:55:16;7.22;;;3.45;;
64712;SDS011;51140;45.340;5.980;2023-04-06T03:57:41;8.07;;;3.75;;
64712;SDS011;51140;45.340;5.980;2023-04-06T04:00:07;8.25;;;4.35;;
64712;SDS011;51140;45.340;5.980;2023-04-06T04:02:33;9.27;;;4.38;;
64712;SDS011;51140;45.340;5.980;2023-04-06T04:04:58;10.20;;;3.92;;
64712;SDS011;51140;45.340;5.980;2023-04-06T04:07:23;9.23;;;4.65;;
64712;SDS011;51140;45.340;5.980;2023-04-06T04:09:49;9.68;;;5.00;;
64712;SDS011;51140;45.340;5.980;2023-04-06T04:12:15;8.20;;;4.30;;
64712;SDS011;51140;45.340;5.980;2023-04-06T04:14:41;8.52;;;4.20;;
64712;SDS011;51140;45.340;5.980;2023-04-06T04:17:07;8.40;;;4.10;;
64712;SDS011;51140;45.340;5.980;2023-04-06T04:19:32;10.13;;;4.10;;
64712;SDS011;51140;45.340;5.980;2023-04-06T04:21:57;10.25;;;4.40;;
64712;SDS011;51140;45.340;5.980;2023-04-06T04:24:23;7.18;;;3.47;;
64712;SDS011;51140;45.340;5.980;2023-04-06T04:26:48;10.48;;;4.05;;
64712;SDS011;51140;45.340;5.980;2023-04-06T04:29:14;7.38;;;3.28;;
64712;SDS011;51140;45.340;5.980;2023-04-06T04:31:40;9.95;;;4.28;;
64712;SDS011;51140;45.340;5.980;2023-04-06T04:34:05;9.02;;;3.75;;
64712;SDS011;51140;45.340;5.980;2023-04-06T04:36:31;7.20;;;3.58;;
64712;SDS011;51140;45.340;5.980;2023-04-06T04:38:57;7.72;;;3.40;;
64712;SDS011;51140;45.340;5.980;2023-04-06T04:41:22;7.03;;;3.25;;
64712;SDS011;51140;45.340;5.980;2023-04-06T04:43:48;9.43;;;3.28;;
64712;SDS011;51140;45.340;5.980;2023-04-06T04:46:13;7.47;;;3.63;;
64712;SDS011;51140;45.340;5.980;2023-04-06T04:48:38;8.02;;;3.30;;
64712;SDS011;51140;45.340;5.980;2023-04-06T04:51:04;7.72;;;3.22;;
64712;SDS011;51140;45.340;5.980;2023-04-06T04:53:30;8.35;;;3.67;;
64712;SDS011;51140;45.340;5.980;2023-04-06T04:55:56;6.85;;;3.28;;
64712;SDS011;51140;45.340;5.980;2023-04-06T04:58:21;7.60;;;3.35;;
64712;SDS011;51140;45.340;5.980;2023-04-06T05:00:46;8.40;;;3.20;;
64712;SDS011;51140;45.340;5.980;2023-04-06T05:03:14;7.88;;;3.53;;
64712;SDS011;51140;45.340;5.980;2023-04-06T05:05:45;8.40;;;3.95;;
64712;SDS011;51140;45.340;5.980;2023-04-06T05:08:11;9.65;;;4.05;;
64712;SDS011;51140;45.340;5.980;2023-04-06T05:10:37;8.98;;;4.28;;
64712;SDS011;51140;45.340;5.980;2023-04-06T05:13:02;8.25;;;4.15;;
64712;SDS011;51140;45.340;5.980;2023-04-06T05:15:27;11.43;;;3.90;;
64712;SDS011;51140;45.340;5.980;2023-04-06T05:17:53;7.05;;;3.53;;
64712;SDS011;51140;45.340;5.980;2023-04-06T05:20:18;8.48;;;3.50;;
64712;SDS011;51140;45.340;5.980;2023-04-06T05:22:44;8.32;;;3.72;;
64712;SDS011;51140;45.340;5.980;2023-04-06T05:25:09;7.88;;;4.15;;
64712;SDS011;51140;45.340;5.980;2023-04-06T05:27:35;8.23;;;4.53;;
64712;SDS011;51140;45.340;5.980;2023-04-06T05:30:00;12.13;;;5.07;;
64712;SDS011;51140;45.340;5.980;2023-04-06T05:32:26;9.40;;;4.32;;
64712;SDS011;51140;45.340;5.980;2023-04-06T05:34:52;8.40;;;4.20;;
64712;SDS011;51140;45.340;5.980;2023-04-06T05:37:18;7.05;;;3.50;;
64712;SDS011;51140;45.340;5.980;2023-04-06T05:39:43;8.88;;;3.28;;
64712;SDS011;51140;45.340;5.980;2023-04-06T05:42:09;7.78;;;3.80;;
64712;SDS011;51140;45.340;5.980;2023-04-06T05:44:36;9.30;;;3.70;;
64712;SDS011;51140;45.340;5.980;2023-04-06T05:47:02;6.40;;;3.33;;
64712;SDS011;51140;45.340;5.980;2023-04-06T05:49:27;7.40;;;3.53;;
64712;SDS011;51140;45.340;5.980;2023-04-06T05:51:53;8.68;;;3.35;;
64712;SDS011;51140;45.340;5.980;2023-04-06T05:54:18;8.00;;;3.08;;
64712;SDS011;51140;45.340;5.980;2023-04-06T05:56:43;10.45;;;3.78;;
64712;SDS011;51140;45.340;5.980;2023-04-06T05:59:09;6.60;;;3.10;;
64712;SDS011;51140;45.340;5.980;2023-04-06T06:01:34;8.43;;;3.70;;
64712;SDS011;51140;45.340;5.980;2023-04-06T06:04:01;6.80;;;3.63;;
64712;SDS011;51140;45.340;5.980;2023-04-06T06:06:27;8.30;;;3.58;;
64712;SDS011;51140;45.340;5.980;2023-04-06T06:08:53;6.43;;;3.28;;
64712;SDS011;51140;45.340;5.980;2023-04-06T06:11:19;8.27;;;3.63;;
64712;SDS011;51140;45.340;5.980;2023-04-06T06:13:45;8.30;;;4.40;;
64712;SDS011;51140;45.340;5.980;2023-04-06T06:16:10;8.05;;;4.10;;
64712;SDS011;51140;45.340;5.980;2023-04-06T06:18:35;7.93;;;3.42;;
64712;SDS011;51140;45.340;5.980;2023-04-06T06:21:02;10.70;;;3.50;;
64712;SDS011;51140;45.340;5.980;2023-04-06T06:23:27;9.02;;;3.17;;
64712;SDS011;51140;45.340;5.980;2023-04-06T06:25:52;7.60;;;3.15;;
64712;SDS011;51140;45.340;5.980;2023-04-06T06:28:18;7.82;;;3.90;;
64712;SDS011;51140;45.340;5.980;2023-04-06T06:30:44;6.72;;;3.22;;
64712;SDS011;51140;45.340;5.980;2023-04-06T06:33:09;6.70;;;3.25;;
64712;SDS011;51140;45.340;5.980;2023-04-06T06:35:35;8.50;;;3.92;;
64712;SDS011;51140;45.340;5.980;2023-04-06T06:38:00;8.55;;;4.40;;
64712;SDS011;51140;45.340;5.980;2023-04-06T06:40:25;9.73;;;4.43;;
64712;SDS011;51140;45.340;5.980;2023-04-06T06:42:51;6.78;;;3.30;;
64712;SDS011;51140;45.340;5.980;2023-04-06T06:45:17;8.90;;;4.78;;
64712;SDS011;51140;45.340;5.980;2023-04-06T06:47:43;8.55;;;4.05;;
64712;SDS011;51140;45.340;5.980;2023-04-06T06:50:08;8.35;;;3.97;;
64712;SDS011;51140;45.340;5.980;2023-04-06T06:52:34;10.23;;;4.30;;
64712;SDS011;51140;45.340;5.980;2023-04-06T06:54:59;9.20;;;4.50;;
64712;SDS011;51140;45.340;5.980;2023-04-06T06:57:25;11.73;;;5.07;;
64712;SDS011;51140;45.340;5.980;2023-04-06T06:59:51;10.98;;;5.55;;
64712;SDS011;51140;45.340;5.980;2023-04-06T07:02:16;16.30;;;6.50;;
64712;SDS011;51140;45.340;5.980;2023-04-06T07:04:42;13.50;;;6.55;;
64712;SDS011;51140;45.340;5.980;2023-04-06T07:07:07;13.63;;;6.93;;
64712;SDS011;51140;45.340;5.980;2023-04-06T07:09:33;15.05;;;9.27;;
64712;SDS011;51140;45.340;5.980;2023-04-06T07:12:00;17.23;;;11.45;;
64712;SDS011;51140;45.340;5.980;2023-04-06T07:14:26;18.88;;;10.52;;
64712;SDS011;51140;45.340;5.980;2023-04-06T07:16:52;24.00;;;17.08;;
64712;SDS011;51140;45.340;5.980;2023-04-06T07:19:17;19.48;;;11.85;;
64712;SDS011;51140;45.340;5.980;2023-04-06T07:21:43;16.50;;;11.18;;
64712;SDS011;51140;45.340;5.980;2023-04-06T07:24:08;19.83;;;12.15;;
64712;SDS011;51140;45.340;5.980;2023-04-06T07:26:33;13.15;;;7.57;;
64712;SDS011;51140;45.340;5.980;2023-04-06T07:28:59;17.05;;;8.93;;
64712;SDS011;51140;45.340;5.980;2023-04-06T07:31:24;14.57;;;9.68;;
64712;SDS011;51140;45.340;5.980;2023-04-06T07:33:50;13.95;;;8.55;;
64712;SDS011;51140;45.340;5.980;2023-04-06T07:36:15;13.63;;;6.15;;
64712;SDS011;51140;45.340;5.980;2023-04-06T07:38:41;14.55;;;5.75;;
64712;SDS011;51140;45.340;5.980;2023-04-06T07:41:06;12.60;;;6.00;;
64712;SDS011;51140;45.340;5.980;2023-04-06T07:43:31;23.83;;;13.85;;
64712;SDS011;51140;45.340;5.980;2023-04-06T07:45:57;18.42;;;9.48;;
64712;SDS011;51140;45.340;5.980;2023-04-06T07:48:24;18.15;;;9.93;;
64712;SDS011;51140;45.340;5.980;2023-04-06T07:50:49;12.50;;;7.38;;
64712;SDS011;51140;45.340;5.980;2023-04-06T07:53:15;12.35;;;6.85;;
64712;SDS011;51140;45.340;5.980;2023-04-06T07:55:40;15.55;;;6.38;;
64712;SDS011;51140;45.340;5.980;2023-04-06T07:58:06;13.02;;;6.53;;
64712;SDS011;51140;45.340;5.980;2023-04-06T08:00:32;11.95;;;5.72;;
64712;SDS011;51140;45.340;5.980;2023-04-06T08:02:57;9.88;;;5.38;;
64712;SDS011;51140;45.340;5.980;2023-04-06T08:05:22;12.63;;;5.70;;
64712;SDS011;51140;45.340;5.980;2023-04-06T08:07:48;11.02;;;5.53;;
64712;SDS011;51140;45.340;5.980;2023-04-06T08:10:14;10.15;;;4.88;;
64712;SDS011;51140;45.340;5.980;2023-04-06T08:12:39;11.02;;;5.32;;
64712;SDS011;51140;45.340;5.980;2023-04-06T08:15:04;9.48;;;4.55;;
64712;SDS011;51140;45.340;5.980;2023-04-06T08:17:31;8.15;;;4.57;;
64712;SDS011;51140;45.340;5.980;2023-04-06T08:19:57;8.90;;;4.50;;
64712;SDS011;51140;45.340;5.980;2023-04-06T08:22:22;10.48;;;4.93;;
64712;SDS011;51140;45.340;5.980;2023-04-06T08:24:48;9.48;;;4.93;;
64712;SDS011;51140;45.340;5.980;2023-04-06T08:27:13;10.13;;;5.10;;
64712;SDS011;51140;45.340;5.980;2023-04-06T08:29:39;13.35;;;6.00;;
64712;SDS011;51140;45.340;5.980;2023-04-06T08:32:05;10.65;;;5.68;;
64712;SDS011;51140;45.340;5.980;2023-04-06T08:34:32;9.77;;;5.18;;
64712;SDS011;51140;45.340;5.980;2023-04-06T08:36:58;10.52;;;5.28;;
64712;SDS011;51140;45.340;5.980;2023-04-06T08:39:23;9.23;;;5.05;;
64712;SDS011;51140;45.340;5.980;2023-04-06T08:41:51;9.25;;;4.72;;
64712;SDS011;51140;45.340;5.980;2023-04-06T08:44:17;8.07;;;4.22;;
64712;SDS011;51140;45.340;5.980;2023-04-06T08:46:43;6.95;;;3.92;;
64712;SDS011;51140;45.340;5.980;2023-04-06T08:49:09;8.55;;;4.55;;
64712;SDS011;51140;45.340;5.980;2023-04-06T08:51:36;9.63;;;4.43;;
64712;SDS011;51140;45.340;5.980;2023-04-06T08:54:03;9.32;;;4.20;;
64712;SDS011;51140;45.340;5.980;2023-04-06T08:56:28;8.88;;;4.13;;
64712;SDS011;51140;45.340;5.980;2023-04-06T08:58:54;8.75;;;4.13;;
64712;SDS011;51140;45.340;5.980;2023-04-06T09:01:21;9.00;;;3.85;;
64712;SDS011;51140;45.340;5.980;2023-04-06T09:03:51;7.95;;;3.92;;
64712;SDS011;51140;45.340;5.980;2023-04-06T09:06:20;12.02;;;4.10;;
64712;SDS011;51140;45.340;5.980;2023-04-06T09:08:46;7.32;;;4.22;;
64712;SDS011;51140;45.340;5.980;2023-04-06T09:11:11;7.10;;;3.95;;
64712;SDS011;51140;45.340;5.980;2023-04-06T09:13:50;6.97;;;3.67;;
64712;SDS011;51140;45.340;5.980;2023-04-06T09:16:17;6.25;;;3.45;;
64712;SDS011;51140;45.340;5.980;2023-04-06T09:18:43;8.85;;;4.05;;
64712;SDS011;51140;45.340;5.980;2023-04-06T09:21:09;7.57;;;3.42;;
64712;SDS011;51140;45.340;5.980;2023-04-06T09:23:35;7.25;;;3.53;;
64712;SDS011;51140;45.340;5.980;2023-04-06T09:28:58;7.40;;;3.65;;
64712;SDS011;51140;45.340;5.980;2023-04-06T09:31:29;5.60;;;3.00;;
64712;SDS011;51140;45.340;5.980;2023-04-06T09:33:58;7.13;;;3.75;;
64712;SDS011;51140;45.340;5.980;2023-04-06T09:36:31;6.30;;;3.67;;
64712;SDS011;51140;45.340;5.980;2023-04-06T09:39:02;9.00;;;3.22;;
64712;SDS011;51140;45.340;5.980;2023-04-06T09:41:33;7.15;;;3.33;;
64712;SDS011;51140;45.340;5.980;2023-04-06T09:44:04;6.75;;;3.40;;
64712;SDS011;51140;45.340;5.980;2023-04-06T09:46:43;5.93;;;3.35;;
64712;SDS011;51140;45.340;5.980;2023-04-06T09:49:10;6.13;;;2.65;;
64712;SDS011;51140;45.340;5.980;2023-04-06T09:51:41;6.10;;;2.90;;
64712;SDS011;51140;45.340;5.980;2023-04-06T09:54:07;7.75;;;3.13;;
64712;SDS011;51140;45.340;5.980;2023-04-06T09:59:23;7.43;;;3.00;;
64712;SDS011;51140;45.340;5.980;2023-04-06T10:01:57;6.65;;;3.38;;
64712;SDS011;51140;45.340;5.980;2023-04-06T10:04:33;7.07;;;3.28;;
64712;SDS011;51140;45.340;5.980;2023-04-06T10:07:04;6.60;;;2.60;;
64712;SDS011;51140;45.340;5.980;2023-04-06T10:09:31;6.88;;;2.70;;
64712;SDS011;51140;45.340;5.980;2023-04-06T10:12:04;6.70;;;2.90;;
64712;SDS011;51140;45.340;5.980;2023-04-06T10:14:31;6.03;;;3.10;;
64712;SDS011;51140;45.340;5.980;2023-04-06T10:17:00;8.18;;;3.20;;
64712;SDS011;51140;45.340;5.980;2023-04-06T10:19:27;6.00;;;3.00;;
64712;SDS011;51140;45.340;5.980;2023-04-06T10:22:02;6.03;;;2.90;;
64712;SDS011;51140;45.340;5.980;2023-04-06T10:24:30;6.85;;;2.80;;
64712;SDS011;51140;45.340;5.980;2023-04-06T10:26:59;7.05;;;2.75;;
64712;SDS011;51140;45.340;5.980;2023-04-06T10:29:26;6.70;;;2.80;;
64712;SDS011;51140;45.340;5.980;2023-04-06T10:31:52;11.18;;;2.80;;
64712;SDS011;51140;45.340;5.980;2023-04-06T10:34:17;6.60;;;2.78;;
64712;SDS011;51140;45.340;5.980;2023-04-06T10:36:43;7.53;;;2.60;;
64712;SDS011;51140;45.340;5.980;2023-04-06T10:39:08;6.00;;;3.08;;
64712;SDS011;51140;45.340;5.980;2023-04-06T10:43:59;6.07;;;2.60;;
64712;SDS011;51140;45.340;5.980;2023-04-06T10:46:27;6.35;;;3.08;;
64712;SDS011;51140;45.340;5.980;2023-04-06T10:48:57;6.72;;;2.75;;
64712;SDS011;51140;45.340;5.980;2023-04-06T10:51:26;6.28;;;3.17;;
64712;SDS011;51140;45.340;5.980;2023-04-06T10:53:54;6.55;;;3.30;;
64712;SDS011;51140;45.340;5.980;2023-04-06T10:56:23;5.85;;;2.90;;
64712;SDS011;51140;45.340;5.980;2023-04-06T10:58:52;6.85;;;3.15;;
64712;SDS011;51140;45.340;5.980;2023-04-06T11:01:19;5.78;;;3.05;;
64712;SDS011;51140;45.340;5.980;2023-04-06T11:03:46;8.90;;;4.68;;
64712;SDS011;51140;45.340;5.980;2023-04-06T11:06:23;6.68;;;3.28;;
64712;SDS011;51140;45.340;5.980;2023-04-06T11:08:54;8.07;;;3.53;;
64712;SDS011;51140;45.340;5.980;2023-04-06T11:11:21;6.00;;;3.10;;
64712;SDS011;51140;45.340;5.980;2023-04-06T11:16:20;6.90;;;3.38;;
64712;SDS011;51140;45.340;5.980;2023-04-06T11:18:47;10.18;;;3.53;;
64712;SDS011;51140;45.340;5.980;2023-04-06T11:21:13;8.02;;;3.30;;
64712;SDS011;51140;45.340;5.980;2023-04-06T11:23:39;8.23;;;3.33;;
64712;SDS011;51140;45.340;5.980;2023-04-06T11:26:04;6.50;;;3.50;;
64712;SDS011;51140;45.340;5.980;2023-04-06T11:28:35;11.23;;;5.55;;
64712;SDS011;51140;45.340;5.980;2023-04-06T11:31:01;9.80;;;4.43;;
64712;SDS011;51140;45.340;5.980;2023-04-06T11:33:26;8.40;;;3.85;;
64712;SDS011;51140;45.340;5.980;2023-04-06T11:35:52;8.93;;;5.22;;
64712;SDS011;51140;45.340;5.980;2023-04-06T11:38:18;8.70;;;4.22;;
64712;SDS011;51140;45.340;5.980;2023-04-06T11:40:44;8.52;;;4.75;;
64712;SDS011;51140;45.340;5.980;2023-04-06T11:43:12;9.10;;;5.10;;
64712;SDS011;51140;45.340;5.980;2023-04-06T11:45:41;11.95;;;5.18;;
64712;SDS011;51140;45.340;5.980;2023-04-06T11:48:17;10.60;;;5.03;;
64712;SDS011;51140;45.340;5.980;2023-04-06T11:50:43;10.95;;;4.32;;
64712;SDS011;51140;45.340;5.980;2023-04-06T11:53:11;9.38;;;3.67;;
64712;SDS011;51140;45.340;5.980;2023-04-06T11:55:37;9.07;;;4.10;;
64712;SDS011;51140;45.340;5.980;2023-04-06T11:58:03;8.43;;;3.92;;
64712;SDS011;51140;45.340;5.980;2023-04-06T12:00:29;8.73;;;3.25;;
64712;SDS011;51140;45.340;5.980;2023-04-06T12:02:59;11.55;;;3.90;;
64712;SDS011;51140;45.340;5.980;2023-04-06T12:05:25;8.63;;;4.28;;
64712;SDS011;51140;45.340;5.980;2023-04-06T12:07:50;9.00;;;4.20;;
64712;SDS011;51140;45.340;5.980;2023-04-06T12:10:16;9.48;;;4.43;;
64712;SDS011;51140;45.340;5.980;2023-04-06T12:12:41;10.93;;;5.30;;
64712;SDS011;51140;45.340;5.980;2023-04-06T12:15:07;8.65;;;4.40;;
64712;SDS011;51140;45.340;5.980;2023-04-06T12:17:33;11.13;;;4.90;;
64712;SDS011;51140;45.340;5.980;2023-04-06T12:19:58;8.48;;;4.40;;
64712;SDS011;51140;45.340;5.980;2023-04-06T12:22:23;8.48;;;4.60;;
64712;SDS011;51140;45.340;5.980;2023-04-06T12:24:49;8.85;;;5.00;;
64712;SDS011;51140;45.340;5.980;2023-04-06T12:27:14;14.23;;;5.30;;
64712;SDS011;51140;45.340;5.980;2023-04-06T12:29:41;8.10;;;4.63;;
64712;SDS011;51140;45.340;5.980;2023-04-06T12:32:07;8.80;;;4.63;;
64712;SDS011;51140;45.340;5.980;2023-04-06T12:34:33;11.73;;;5.15;;
64712;SDS011;51140;45.340;5.980;2023-04-06T12:36:58;10.18;;;5.03;;
64712;SDS011;51140;45.340;5.980;2023-04-06T12:39:24;12.77;;;5.53;;
64712;SDS011;51140;45.340;5.980;2023-04-06T12:41:52;9.95;;;5.10;;
64712;SDS011;51140;45.340;5.980;2023-04-06T12:44:17;11.52;;;5.03;;
64712;SDS011;51140;45.340;5.980;2023-04-06T12:46:43;10.20;;;5.03;;
64712;SDS011;51140;45.340;5.980;2023-04-06T12:49:08;8.10;;;4.28;;
64712;SDS011;51140;45.340;5.980;2023-04-06T12:51:33;9.57;;;4.70;;
64712;SDS011;51140;45.340;5.980;2023-04-06T12:53:59;7.82;;;3.60;;
64712;SDS011;51140;45.340;5.980;2023-04-06T12:56:24;8.15;;;4.10;;
64712;SDS011;51140;45.340;5.980;2023-04-06T12:58:50;7.38;;;3.80;;
64712;SDS011;51140;45.340;5.980;2023-04-06T13:01:16;7.13;;;3.70;;
64712;SDS011;51140;45.340;5.980;2023-04-06T13:03:42;8.93;;;4.03;;
64712;SDS011;51140;45.340;5.980;2023-04-06T13:06:08;8.60;;;3.85;;
64712;SDS011;51140;45.340;5.980;2023-04-06T13:08:34;9.13;;;4.13;;
64712;SDS011;51140;45.340;5.980;2023-04-06T13:11:02;7.47;;;3.67;;
64712;SDS011;51140;45.340;5.980;2023-04-06T13:13:28;7.75;;;3.72;;
64712;SDS011;51140;45.340;5.980;2023-04-06T13:15:55;6.43;;;3.50;;
64712;SDS011;51140;45.340;5.980;2023-04-06T13:18:24;6.68;;;3.53;;
64712;SDS011;51140;45.340;5.980;2023-04-06T13:20:50;6.97;;;3.13;;
64712;SDS011;51140;45.340;5.980;2023-04-06T13:23:15;7.07;;;3.33;;
64712;SDS011;51140;45.340;5.980;2023-04-06T13:25:41;9.95;;;3.45;;
64712;SDS011;51140;45.340;5.980;2023-04-06T13:28:07;8.43;;;3.42;;
64712;SDS011;51140;45.340;5.980;2023-04-06T13:30:33;6.55;;;3.17;;
64712;SDS011;51140;45.340;5.980;2023-04-06T13:32:58;6.13;;;3.17;;
64712;SDS011;51140;45.340;5.980;2023-04-06T13:35:23;6.43;;;3.22;;
64712;SDS011;51140;45.340;5.980;2023-04-06T13:37:49;6.90;;;2.88;;
64712;SDS011;51140;45.340;5.980;2023-04-06T13:40:17;7.60;;;3.42;;
64712;SDS011;51140;45.340;5.980;2023-04-06T13:42:42;6.93;;;3.05;;
64712;SDS011;51140;45.340;5.980;2023-04-06T13:45:10;7.15;;;3.50;;
64712;SDS011;51140;45.340;5.980;2023-04-06T13:47:35;9.27;;;3.60;;
64712;SDS011;51140;45.340;5.980;2023-04-06T13:50:01;9.95;;;3.38;;
64712;SDS011;51140;45.340;5.980;2023-04-06T13:52:27;5.90;;;3.05;;
64712;SDS011;51140;45.340;5.980;2023-04-06T13:54:52;7.43;;;3.22;;
64712;SDS011;51140;45.340;5.980;2023-04-06T13:57:18;12.07;;;3.30;;
64712;SDS011;51140;45.340;5.980;2023-04-06T13:59:43;7.70;;;3.25;;
64712;SDS011;51140;45.340;5.980;2023-04-06T14:02:09;8.82;;;3.55;;
64712;SDS011;51140;45.340;5.980;2023-04-06T14:04:35;6.68;;;3.40;;
64712;SDS011;51140;45.340;5.980;2023-04-06T14:07:01;7.32;;;3.78;;
64712;SDS011;51140;45.340;5.980;2023-04-06T14:09:28;12.27;;;3.13;;
64712;SDS011;51140;45.340;5.980;2023-04-06T14:11:54;7.93;;;3.28;;
64712;SDS011;51140;45.340;5.980;2023-04-06T14:14:21;8.00;;;3.63;;
64712;SDS011;51140;45.340;5.980;2023-04-06T14:16:47;10.25;;;3.70;;
64712;SDS011;51140;45.340;5.980;2023-04-06T14:19:14;7.10;;;3.30;;
64712;SDS011;51140;45.340;5.980;2023-04-06T14:21:40;7.20;;;3.08;;
64712;SDS011;51140;45.340;5.980;2023-04-06T14:24:07;12.35;;;3.42;;
64712;SDS011;51140;45.340;5.980;2023-04-06T14:26:33;17.63;;;3.15;;
64712;SDS011;51140;45.340;5.980;2023-04-06T14:29:03;8.20;;;2.70;;
64712;SDS011;51140;45.340;5.980;2023-04-06T14:31:29;6.50;;;2.58;;
64712;SDS011;51140;45.340;5.980;2023-04-06T14:33:55;10.43;;;2.83;;
64712;SDS011;51140;45.340;5.980;2023-04-06T14:36:20;7.65;;;2.92;;
64712;SDS011;51140;45.340;5.980;2023-04-06T14:38:46;14.68;;;3.22;;
64712;SDS011;51140;45.340;5.980;2023-04-06T14:41:19;5.68;;;2.58;;
64712;SDS011;51140;45.340;5.980;2023-04-06T14:43:46;6.85;;;2.88;;
64712;SDS011;51140;45.340;5.980;2023-04-06T14:46:12;5.78;;;2.30;;
64712;SDS011;51140;45.340;5.980;2023-04-06T14:48:38;6.30;;;2.50;;
64712;SDS011;51140;45.340;5.980;2023-04-06T14:51:03;6.20;;;2.72;;